sensor_id;sensor_type;location;lat;lon;timestamp;temperature;humidity
16970;DHT22;8601;48.718;8.992;2022-10-22T00:00:40;12.90;99.90
16970;DHT22;8601;48.718;8.992;2022-10-22T00:03:07;12.90;99.90
16970;DHT22;8601;48.718;8.992;2022-10-22T00:05:34;12.90;99.90
16970;DHT22;8601;48.718;8.992;2022-10-22T00:08:02;12.90;99.90
16970;DHT22;8601;48.718;8.992;2022-10-22T00:10:28;12.90;99.90
16970;DHT22;8601;48.718;8.992;2022-10-22T00:12:57;12.90;99.90
16970;DHT22;8601;48.718;8.992;2022-10-22T00:15:24;12.90;99.90
16970;DHT22;8601;48.718;8.992;2022-10-22T00:17:51;12.80;99.90
16970;DHT22;8601;48.718;8.992;2022-10-22T00:20:18;12.80;99.90
16970;DHT22;8601;48.718;8.992;2022-10-22T00:22:45;12.80;99.90
16970;DHT22;8601;48.718;8.992;2022-10-22T00:25:12;12.90;99.90
16970;DHT22;8601;48.718;8.992;2022-10-22T00:27:39;12.80;99.90
16970;DHT22;8601;48.718;8.992;2022-10-22T00:30:08;12.80;99.90
16970;DHT22;8601;48.718;8.992;2022-10-22T00:32:35;12.80;99.90
16970;DHT22;8601;48.718;8.992;2022-10-22T00:35:04;12.80;99.90
16970;DHT22;8601;48.718;8.992;2022-10-22T00:37:31;12.80;99.90
16970;DHT22;8601;48.718;8.992;2022-10-22T00:39:57;12.80;99.90
16970;DHT22;8601;48.718;8.992;2022-10-22T00:42:26;12.80;99.90
16970;DHT22;8601;48.718;8.992;2022-10-22T00:45:20;12.70;99.90
16970;DHT22;8601;48.718;8.992;2022-10-22T00:47:50;12.70;99.90
16970;DHT22;8601;48.718;8.992;2022-10-22T00:50:22;12.60;99.90
16970;DHT22;8601;48.718;8.992;2022-10-22T00:52:50;12.60;99.90
16970;DHT22;8601;48.718;8.992;2022-10-22T00:55:18;12.70;99.90
16970;DHT22;8601;48.718;8.992;2022-10-22T00:57:46;12.60;99.90
16970;DHT22;8601;48.718;8.992;2022-10-22T01:00:14;12.60;99.90
16970;DHT22;8601;48.718;8.992;2022-10-22T01:02:43;12.60;99.90
16970;DHT22;8601;48.718;8.992;2022-10-22T01:05:11;12.60;99.90
16970;DHT22;8601;48.718;8.992;2022-10-22T01:07:42;12.60;99.90
16970;DHT22;8601;48.718;8.992;2022-10-22T01:10:26;12.60;99.90
16970;DHT22;8601;48.718;8.992;2022-10-22T01:13:06;12.60;99.90
16970;DHT22;8601;48.718;8.992;2022-10-22T01:15:41;12.60;99.90
16970;DHT22;8601;48.718;8.992;2022-10-22T01:18:16;12.60;99.90
16970;DHT22;8601;48.718;8.992;2022-10-22T01:20:57;12.70;99.90
16970;DHT22;8601;48.718;8.992;2022-10-22T01:23:39;12.60;99.90
16970;DHT22;8601;48.718;8.992;2022-10-22T01:26:20;12.70;99.90
16970;DHT22;8601;48.718;8.992;2022-10-22T01:28:57;12.70;99.90
16970;DHT22;8601;48.718;8.992;2022-10-22T01:31:30;12.70;99.90
16970;DHT22;8601;48.718;8.992;2022-10-22T01:33:58;12.70;99.90
16970;DHT22;8601;48.718;8.992;2022-10-22T01:36:27;12.70;99.90
16970;DHT22;8601;48.718;8.992;2022-10-22T01:38:55;12.70;99.90
16970;DHT22;8601;48.718;8.992;2022-10-22T01:41:26;12.70;99.90
16970;DHT22;8601;48.718;8.992;2022-10-22T01:43:54;12.70;99.90
16970;DHT22;8601;48.718;8.992;2022-10-22T01:46:21;12.70;99.90
16970;DHT22;8601;48.718;8.992;2022-10-22T01:48:59;12.70;99.90
16970;DHT22;8601;48.718;8.992;2022-10-22T01:51:44;12.70;99.90
16970;DHT22;8601;48.718;8.992;2022-10-22T01:54:23;12.70;99.90
16970;DHT22;8601;48.718;8.992;2022-10-22T01:56:57;12.70;99.90
16970;DHT22;8601;48.718;8.992;2022-10-22T01:59:34;12.70;99.90
16970;DHT22;8601;48.718;8.992;2022-10-22T02:02:09;12.70;99.90
16970;DHT22;8601;48.718;8.992;2022-10-22T02:04:42;12.70;99.90
16970;DHT22;8601;48.718;8.992;2022-10-22T02:07:14;12.70;99.90
16970;DHT22;8601;48.718;8.992;2022-10-22T02:09:42;12.60;99.90
16970;DHT22;8601;48.718;8.992;2022-10-22T02:12:11;12.60;99.90
16970;DHT22;8601;48.718;8.992;2022-10-22T02:14:42;12.60;99.90
16970;DHT22;8601;48.718;8.992;2022-10-22T02:17:13;12.60;99.90
16970;DHT22;8601;48.718;8.992;2022-10-22T02:19:46;12.60;99.90
16970;DHT22;8601;48.718;8.992;2022-10-22T02:22:16;12.60;99.90
16970;DHT22;8601;48.718;8.992;2022-10-22T02:24:43;12.50;99.90
16970;DHT22;8601;48.718;8.992;2022-10-22T02:27:17;12.60;99.90
16970;DHT22;8601;48.718;8.992;2022-10-22T02:29:53;12.50;99.90
16970;DHT22;8601;48.718;8.992;2022-10-22T02:32:25;12.50;99.90
16970;DHT22;8601;48.718;8.992;2022-10-22T02:34:53;12.50;99.90
16970;DHT22;8601;48.718;8.992;2022-10-22T02:37:22;12.50;99.90
16970;DHT22;8601;48.718;8.992;2022-10-22T02:39:50;12.50;99.90
16970;DHT22;8601;48.718;8.992;2022-10-22T02:42:18;12.50;99.90
16970;DHT22;8601;48.718;8.992;2022-10-22T02:44:45;12.50;99.90
16970;DHT22;8601;48.718;8.992;2022-10-22T02:47:14;12.50;99.90
16970;DHT22;8601;48.718;8.992;2022-10-22T02:49:41;12.50;99.90
16970;DHT22;8601;48.718;8.992;2022-10-22T02:52:08;12.60;99.90
16970;DHT22;8601;48.718;8.992;2022-10-22T02:54:35;12.50;99.90
16970;DHT22;8601;48.718;8.992;2022-10-22T02:57:02;12.50;99.90
16970;DHT22;8601;48.718;8.992;2022-10-22T02:59:29;12.60;99.90
16970;DHT22;8601;48.718;8.992;2022-10-22T03:01:56;12.60;99.90
16970;DHT22;8601;48.718;8.992;2022-10-22T03:04:24;12.60;99.90
16970;DHT22;8601;48.718;8.992;2022-10-22T03:06:51;12.60;99.90
16970;DHT22;8601;48.718;8.992;2022-10-22T03:09:18;12.60;99.90
16970;DHT22;8601;48.718;8.992;2022-10-22T03:11:45;12.60;99.90
16970;DHT22;8601;48.718;8.992;2022-10-22T03:14:12;12.60;99.90
16970;DHT22;8601;48.718;8.992;2022-10-22T03:16:39;12.50;99.90
16970;DHT22;8601;48.718;8.992;2022-10-22T03:19:06;12.50;99.90
16970;DHT22;8601;48.718;8.992;2022-10-22T03:21:37;12.60;99.90
16970;DHT22;8601;48.718;8.992;2022-10-22T03:24:08;12.60;99.90
16970;DHT22;8601;48.718;8.992;2022-10-22T03:26:37;12.60;99.90
16970;DHT22;8601;48.718;8.992;2022-10-22T03:29:05;12.60;99.90
16970;DHT22;8601;48.718;8.992;2022-10-22T03:31:32;12.60;99.90
16970;DHT22;8601;48.718;8.992;2022-10-22T03:33:58;12.50;99.90
16970;DHT22;8601;48.718;8.992;2022-10-22T03:36:25;12.60;99.90
16970;DHT22;8601;48.718;8.992;2022-10-22T03:38:54;12.50;99.90
16970;DHT22;8601;48.718;8.992;2022-10-22T03:41:21;12.50;99.90
16970;DHT22;8601;48.718;8.992;2022-10-22T03:43:49;12.50;99.90
16970;DHT22;8601;48.718;8.992;2022-10-22T03:46:17;12.50;99.90
16970;DHT22;8601;48.718;8.992;2022-10-22T03:48:44;12.50;99.90
16970;DHT22;8601;48.718;8.992;2022-10-22T03:51:11;12.50;99.90
16970;DHT22;8601;48.718;8.992;2022-10-22T03:53:38;12.50;99.90
16970;DHT22;8601;48.718;8.992;2022-10-22T03:56:08;12.50;99.90
16970;DHT22;8601;48.718;8.992;2022-10-22T03:58:35;12.40;99.90
16970;DHT22;8601;48.718;8.992;2022-10-22T04:01:07;12.40;99.90
16970;DHT22;8601;48.718;8.992;2022-10-22T04:03:34;12.40;99.90
16970;DHT22;8601;48.718;8.992;2022-10-22T04:06:02;12.40;99.90
16970;DHT22;8601;48.718;8.992;2022-10-22T04:08:29;12.40;99.90
16970;DHT22;8601;48.718;8.992;2022-10-22T04:10:56;12.40;99.90
16970;DHT22;8601;48.718;8.992;2022-10-22T04:13:24;12.30;99.90
16970;DHT22;8601;48.718;8.992;2022-10-22T04:15:52;12.30;99.90
16970;DHT22;8601;48.718;8.992;2022-10-22T04:18:21;12.30;99.90
16970;DHT22;8601;48.718;8.992;2022-10-22T04:20:50;12.20;99.90
16970;DHT22;8601;48.718;8.992;2022-10-22T04:23:17;12.20;99.90
16970;DHT22;8601;48.718;8.992;2022-10-22T04:25:44;12.30;99.90
16970;DHT22;8601;48.718;8.992;2022-10-22T04:28:12;12.30;99.90
16970;DHT22;8601;48.718;8.992;2022-10-22T04:30:40;12.20;99.90
16970;DHT22;8601;48.718;8.992;2022-10-22T04:33:07;12.20;99.90
16970;DHT22;8601;48.718;8.992;2022-10-22T04:35:37;12.10;99.90
16970;DHT22;8601;48.718;8.992;2022-10-22T04:38:04;12.10;99.90
16970;DHT22;8601;48.718;8.992;2022-10-22T04:40:31;12.10;99.90
16970;DHT22;8601;48.718;8.992;2022-10-22T04:42:58;12.10;99.90
16970;DHT22;8601;48.718;8.992;2022-10-22T04:45:25;12.10;99.90
16970;DHT22;8601;48.718;8.992;2022-10-22T04:47:53;12.10;99.90
16970;DHT22;8601;48.718;8.992;2022-10-22T04:50:20;12.10;99.90
16970;DHT22;8601;48.718;8.992;2022-10-22T04:52:47;12.10;99.90
16970;DHT22;8601;48.718;8.992;2022-10-22T04:55:14;12.10;99.90
16970;DHT22;8601;48.718;8.992;2022-10-22T04:57:42;12.10;99.90
16970;DHT22;8601;48.718;8.992;2022-10-22T05:00:10;12.10;99.90
16970;DHT22;8601;48.718;8.992;2022-10-22T05:02:37;12.10;99.90
16970;DHT22;8601;48.718;8.992;2022-10-22T05:05:06;12.00;99.90
16970;DHT22;8601;48.718;8.992;2022-10-22T05:07:33;12.00;99.90
16970;DHT22;8601;48.718;8.992;2022-10-22T05:09:59;12.10;99.90
16970;DHT22;8601;48.718;8.992;2022-10-22T05:12:27;12.10;99.90
16970;DHT22;8601;48.718;8.992;2022-10-22T05:14:55;12.00;99.90
16970;DHT22;8601;48.718;8.992;2022-10-22T05:17:22;12.00;99.90
16970;DHT22;8601;48.718;8.992;2022-10-22T05:19:49;12.00;99.90
16970;DHT22;8601;48.718;8.992;2022-10-22T05:22:17;12.00;99.90
16970;DHT22;8601;48.718;8.992;2022-10-22T05:24:44;12.00;99.90
16970;DHT22;8601;48.718;8.992;2022-10-22T05:27:11;12.00;99.90
16970;DHT22;8601;48.718;8.992;2022-10-22T05:29:37;12.00;99.90
16970;DHT22;8601;48.718;8.992;2022-10-22T05:32:04;12.00;99.90
16970;DHT22;8601;48.718;8.992;2022-10-22T05:34:31;12.00;99.90
16970;DHT22;8601;48.718;8.992;2022-10-22T05:37:00;11.90;99.90
16970;DHT22;8601;48.718;8.992;2022-10-22T05:39:28;11.90;99.90
16970;DHT22;8601;48.718;8.992;2022-10-22T05:41:55;12.00;99.90
16970;DHT22;8601;48.718;8.992;2022-10-22T05:44:23;12.00;99.90
16970;DHT22;8601;48.718;8.992;2022-10-22T05:46:49;12.00;99.90
16970;DHT22;8601;48.718;8.992;2022-10-22T05:49:16;12.00;99.90
16970;DHT22;8601;48.718;8.992;2022-10-22T05:51:44;12.00;99.90
16970;DHT22;8601;48.718;8.992;2022-10-22T05:54:16;12.00;99.90
16970;DHT22;8601;48.718;8.992;2022-10-22T05:56:45;12.10;99.90
16970;DHT22;8601;48.718;8.992;2022-10-22T05:59:12;12.00;99.90
16970;DHT22;8601;48.718;8.992;2022-10-22T06:01:39;12.00;99.90
16970;DHT22;8601;48.718;8.992;2022-10-22T06:04:09;12.00;99.90
16970;DHT22;8601;48.718;8.992;2022-10-22T06:06:38;12.00;99.90
16970;DHT22;8601;48.718;8.992;2022-10-22T06:09:10;12.10;99.90
16970;DHT22;8601;48.718;8.992;2022-10-22T06:11:39;12.10;99.90
16970;DHT22;8601;48.718;8.992;2022-10-22T06:14:08;12.20;99.90
16970;DHT22;8601;48.718;8.992;2022-10-22T06:16:35;12.20;99.90
16970;DHT22;8601;48.718;8.992;2022-10-22T06:19:02;12.20;99.90
16970;DHT22;8601;48.718;8.992;2022-10-22T06:21:30;12.20;99.90
16970;DHT22;8601;48.718;8.992;2022-10-22T06:23:58;12.20;99.90
16970;DHT22;8601;48.718;8.992;2022-10-22T06:26:26;12.30;99.90
16970;DHT22;8601;48.718;8.992;2022-10-22T06:28:53;12.30;99.90
16970;DHT22;8601;48.718;8.992;2022-10-22T06:31:22;12.30;99.90
16970;DHT22;8601;48.718;8.992;2022-10-22T06:33:49;12.30;99.90
16970;DHT22;8601;48.718;8.992;2022-10-22T06:36:18;12.30;99.90
16970;DHT22;8601;48.718;8.992;2022-10-22T06:38:45;12.30;99.90
16970;DHT22;8601;48.718;8.992;2022-10-22T06:41:15;12.30;99.90
16970;DHT22;8601;48.718;8.992;2022-10-22T06:43:43;12.40;99.90
16970;DHT22;8601;48.718;8.992;2022-10-22T06:46:12;12.40;99.90
16970;DHT22;8601;48.718;8.992;2022-10-22T06:48:41;12.40;99.90
16970;DHT22;8601;48.718;8.992;2022-10-22T06:51:10;12.40;99.90
16970;DHT22;8601;48.718;8.992;2022-10-22T06:53:38;12.40;99.90
16970;DHT22;8601;48.718;8.992;2022-10-22T06:56:06;12.40;99.90
16970;DHT22;8601;48.718;8.992;2022-10-22T06:58:33;12.40;99.90
16970;DHT22;8601;48.718;8.992;2022-10-22T07:01:02;12.40;99.90
16970;DHT22;8601;48.718;8.992;2022-10-22T07:03:29;12.50;99.90
16970;DHT22;8601;48.718;8.992;2022-10-22T07:06:00;12.50;99.90
16970;DHT22;8601;48.718;8.992;2022-10-22T07:08:27;12.50;99.90
16970;DHT22;8601;48.718;8.992;2022-10-22T07:10:55;12.50;99.90
16970;DHT22;8601;48.718;8.992;2022-10-22T07:13:23;12.60;99.90
16970;DHT22;8601;48.718;8.992;2022-10-22T07:15:53;12.60;99.90
16970;DHT22;8601;48.718;8.992;2022-10-22T07:18:20;12.60;99.90
16970;DHT22;8601;48.718;8.992;2022-10-22T07:20:49;12.60;99.90
16970;DHT22;8601;48.718;8.992;2022-10-22T07:23:17;12.70;99.90
16970;DHT22;8601;48.718;8.992;2022-10-22T07:25:44;12.60;99.90
16970;DHT22;8601;48.718;8.992;2022-10-22T07:28:11;12.60;99.90
16970;DHT22;8601;48.718;8.992;2022-10-22T07:30:38;12.70;99.90
16970;DHT22;8601;48.718;8.992;2022-10-22T07:33:05;12.60;99.90
16970;DHT22;8601;48.718;8.992;2022-10-22T07:35:33;12.70;99.90
16970;DHT22;8601;48.718;8.992;2022-10-22T07:38:01;12.70;99.90
16970;DHT22;8601;48.718;8.992;2022-10-22T07:40:30;12.70;99.90
16970;DHT22;8601;48.718;8.992;2022-10-22T07:42:57;12.70;99.90
16970;DHT22;8601;48.718;8.992;2022-10-22T07:45:24;12.80;99.90
16970;DHT22;8601;48.718;8.992;2022-10-22T07:47:51;12.80;99.90
16970;DHT22;8601;48.718;8.992;2022-10-22T07:50:18;12.80;99.90
16970;DHT22;8601;48.718;8.992;2022-10-22T07:52:45;12.80;99.90
16970;DHT22;8601;48.718;8.992;2022-10-22T07:55:12;12.80;99.90
16970;DHT22;8601;48.718;8.992;2022-10-22T07:57:40;12.90;99.90
16970;DHT22;8601;48.718;8.992;2022-10-22T08:00:08;13.00;99.90
16970;DHT22;8601;48.718;8.992;2022-10-22T08:02:36;12.90;99.90
16970;DHT22;8601;48.718;8.992;2022-10-22T08:05:04;13.00;99.90
16970;DHT22;8601;48.718;8.992;2022-10-22T08:07:31;13.10;99.90
16970;DHT22;8601;48.718;8.992;2022-10-22T08:09:58;13.00;99.90
16970;DHT22;8601;48.718;8.992;2022-10-22T08:12:25;13.10;99.90
16970;DHT22;8601;48.718;8.992;2022-10-22T08:14:54;13.10;99.90
16970;DHT22;8601;48.718;8.992;2022-10-22T08:17:21;13.10;99.90
16970;DHT22;8601;48.718;8.992;2022-10-22T08:19:48;13.20;99.90
16970;DHT22;8601;48.718;8.992;2022-10-22T08:22:15;13.30;99.90
16970;DHT22;8601;48.718;8.992;2022-10-22T08:24:42;13.30;99.90
16970;DHT22;8601;48.718;8.992;2022-10-22T08:27:09;13.40;99.90
16970;DHT22;8601;48.718;8.992;2022-10-22T08:29:36;13.50;99.90
16970;DHT22;8601;48.718;8.992;2022-10-22T08:32:05;13.50;99.90
16970;DHT22;8601;48.718;8.992;2022-10-22T08:34:32;13.50;99.90
16970;DHT22;8601;48.718;8.992;2022-10-22T08:36:59;13.70;99.90
16970;DHT22;8601;48.718;8.992;2022-10-22T08:39:26;13.70;99.90
16970;DHT22;8601;48.718;8.992;2022-10-22T08:42:01;13.80;99.90
16970;DHT22;8601;48.718;8.992;2022-10-22T08:44:50;13.80;99.90
16970;DHT22;8601;48.718;8.992;2022-10-22T08:47:47;13.90;99.90
16970;DHT22;8601;48.718;8.992;2022-10-22T08:50:23;14.00;99.90
16970;DHT22;8601;48.718;8.992;2022-10-22T08:52:56;14.20;99.90
16970;DHT22;8601;48.718;8.992;2022-10-22T08:55:25;14.30;99.90
16970;DHT22;8601;48.718;8.992;2022-10-22T08:57:58;14.50;99.90
16970;DHT22;8601;48.718;8.992;2022-10-22T09:00:31;14.90;99.90
16970;DHT22;8601;48.718;8.992;2022-10-22T09:03:18;15.20;99.90
16970;DHT22;8601;48.718;8.992;2022-10-22T09:05:58;15.60;99.90
16970;DHT22;8601;48.718;8.992;2022-10-22T09:08:27;16.00;99.90
16970;DHT22;8601;48.718;8.992;2022-10-22T09:11:00;16.20;99.90
16970;DHT22;8601;48.718;8.992;2022-10-22T09:13:28;16.40;99.90
16970;DHT22;8601;48.718;8.992;2022-10-22T09:15:58;16.60;99.90
16970;DHT22;8601;48.718;8.992;2022-10-22T09:18:35;16.90;99.90
16970;DHT22;8601;48.718;8.992;2022-10-22T09:21:12;17.30;99.90
16970;DHT22;8601;48.718;8.992;2022-10-22T09:23:54;17.60;99.90
16970;DHT22;8601;48.718;8.992;2022-10-22T09:26:21;18.00;99.90
16970;DHT22;8601;48.718;8.992;2022-10-22T09:28:49;18.00;99.90
16970;DHT22;8601;48.718;8.992;2022-10-22T09:31:16;17.90;99.90
16970;DHT22;8601;48.718;8.992;2022-10-22T09:33:46;17.80;99.90
16970;DHT22;8601;48.718;8.992;2022-10-22T09:36:16;18.00;99.90
16970;DHT22;8601;48.718;8.992;2022-10-22T09:38:46;17.90;99.90
16970;DHT22;8601;48.718;8.992;2022-10-22T09:41:14;18.10;99.90
16970;DHT22;8601;48.718;8.992;2022-10-22T09:43:41;18.00;99.90
16970;DHT22;8601;48.718;8.992;2022-10-22T09:46:15;18.10;99.90
16970;DHT22;8601;48.718;8.992;2022-10-22T09:48:46;18.30;99.90
16970;DHT22;8601;48.718;8.992;2022-10-22T09:51:18;18.40;99.90
16970;DHT22;8601;48.718;8.992;2022-10-22T09:53:54;18.30;99.90
16970;DHT22;8601;48.718;8.992;2022-10-22T09:56:24;18.30;99.90
16970;DHT22;8601;48.718;8.992;2022-10-22T09:58:54;18.50;99.90
16970;DHT22;8601;48.718;8.992;2022-10-22T10:01:24;18.40;99.90
16970;DHT22;8601;48.718;8.992;2022-10-22T10:04:02;18.90;99.90
16970;DHT22;8601;48.718;8.992;2022-10-22T10:06:31;18.80;99.90
16970;DHT22;8601;48.718;8.992;2022-10-22T10:08:59;18.90;99.90
16970;DHT22;8601;48.718;8.992;2022-10-22T10:11:35;18.80;99.90
16970;DHT22;8601;48.718;8.992;2022-10-22T10:14:10;19.00;99.90
16970;DHT22;8601;48.718;8.992;2022-10-22T10:16:52;19.20;99.90
16970;DHT22;8601;48.718;8.992;2022-10-22T10:19:38;19.20;99.90
16970;DHT22;8601;48.718;8.992;2022-10-22T10:22:17;19.40;99.90
16970;DHT22;8601;48.718;8.992;2022-10-22T10:25:02;19.20;99.90
16970;DHT22;8601;48.718;8.992;2022-10-22T10:27:38;19.10;99.90
16970;DHT22;8601;48.718;8.992;2022-10-22T10:30:11;19.10;99.90
16970;DHT22;8601;48.718;8.992;2022-10-22T10:32:54;18.90;99.90
16970;DHT22;8601;48.718;8.992;2022-10-22T10:35:28;18.90;99.90
16970;DHT22;8601;48.718;8.992;2022-10-22T10:38:07;18.90;99.90
16970;DHT22;8601;48.718;8.992;2022-10-22T10:40:43;19.10;99.90
16970;DHT22;8601;48.718;8.992;2022-10-22T10:43:15;19.10;99.90
16970;DHT22;8601;48.718;8.992;2022-10-22T10:45:53;19.20;99.90
16970;DHT22;8601;48.718;8.992;2022-10-22T10:48:40;18.80;99.90
16970;DHT22;8601;48.718;8.992;2022-10-22T10:51:24;18.60;99.90
16970;DHT22;8601;48.718;8.992;2022-10-22T10:54:06;18.60;99.90
16970;DHT22;8601;48.718;8.992;2022-10-22T10:56:40;18.70;99.90
16970;DHT22;8601;48.718;8.992;2022-10-22T10:59:15;18.90;99.90
16970;DHT22;8601;48.718;8.992;2022-10-22T11:01:55;19.10;99.90
16970;DHT22;8601;48.718;8.992;2022-10-22T11:04:50;19.10;99.90
16970;DHT22;8601;48.718;8.992;2022-10-22T11:07:24;19.40;99.90
16970;DHT22;8601;48.718;8.992;2022-10-22T11:09:55;19.10;99.90
16970;DHT22;8601;48.718;8.992;2022-10-22T11:12:27;19.10;99.90
16970;DHT22;8601;48.718;8.992;2022-10-22T11:15:01;18.80;99.90
16970;DHT22;8601;48.718;8.992;2022-10-22T11:17:33;18.60;99.90
16970;DHT22;8601;48.718;8.992;2022-10-22T11:20:05;18.80;99.90
16970;DHT22;8601;48.718;8.992;2022-10-22T11:22:37;19.00;99.90
16970;DHT22;8601;48.718;8.992;2022-10-22T11:25:14;19.30;99.90
16970;DHT22;8601;48.718;8.992;2022-10-22T11:27:48;19.40;99.90
16970;DHT22;8601;48.718;8.992;2022-10-22T11:30:19;19.50;99.90
16970;DHT22;8601;48.718;8.992;2022-10-22T11:32:50;19.70;99.90
16970;DHT22;8601;48.718;8.992;2022-10-22T11:35:21;19.90;99.90
16970;DHT22;8601;48.718;8.992;2022-10-22T11:37:51;19.90;99.90
16970;DHT22;8601;48.718;8.992;2022-10-22T11:40:21;19.90;99.90
16970;DHT22;8601;48.718;8.992;2022-10-22T11:42:50;19.70;99.90
16970;DHT22;8601;48.718;8.992;2022-10-22T11:45:30;19.80;99.90
16970;DHT22;8601;48.718;8.992;2022-10-22T11:47:59;20.10;99.90
16970;DHT22;8601;48.718;8.992;2022-10-22T11:50:48;20.10;99.90
16970;DHT22;8601;48.718;8.992;2022-10-22T11:53:29;20.10;99.90
16970;DHT22;8601;48.718;8.992;2022-10-22T11:55:56;19.90;99.90
16970;DHT22;8601;48.718;8.992;2022-10-22T11:58:31;19.80;99.90
16970;DHT22;8601;48.718;8.992;2022-10-22T12:01:19;19.70;99.70
16970;DHT22;8601;48.718;8.992;2022-10-22T12:03:48;19.50;99.90
16970;DHT22;8601;48.718;8.992;2022-10-22T12:06:18;19.20;99.90
16970;DHT22;8601;48.718;8.992;2022-10-22T12:08:52;19.20;99.90
16970;DHT22;8601;48.718;8.992;2022-10-22T12:11:24;19.40;99.90
16970;DHT22;8601;48.718;8.992;2022-10-22T12:14:01;19.60;99.90
16970;DHT22;8601;48.718;8.992;2022-10-22T12:16:36;19.70;99.90
16970;DHT22;8601;48.718;8.992;2022-10-22T12:19:11;19.80;99.90
16970;DHT22;8601;48.718;8.992;2022-10-22T12:21:41;20.00;99.90
16970;DHT22;8601;48.718;8.992;2022-10-22T12:24:12;20.00;99.90
16970;DHT22;8601;48.718;8.992;2022-10-22T12:26:40;20.00;99.90
16970;DHT22;8601;48.718;8.992;2022-10-22T12:29:11;20.20;99.90
16970;DHT22;8601;48.718;8.992;2022-10-22T12:31:39;20.20;99.60
16970;DHT22;8601;48.718;8.992;2022-10-22T12:34:13;20.30;98.80
16970;DHT22;8601;48.718;8.992;2022-10-22T12:36:40;20.20;98.50
16970;DHT22;8601;48.718;8.992;2022-10-22T12:39:12;20.00;98.20
16970;DHT22;8601;48.718;8.992;2022-10-22T12:41:40;19.70;98.90
16970;DHT22;8601;48.718;8.992;2022-10-22T12:44:10;19.50;98.00
16970;DHT22;8601;48.718;8.992;2022-10-22T12:46:37;19.20;97.40
16970;DHT22;8601;48.718;8.992;2022-10-22T12:49:07;19.20;99.10
16970;DHT22;8601;48.718;8.992;2022-10-22T12:51:34;19.20;99.00
16970;DHT22;8601;48.718;8.992;2022-10-22T12:54:06;19.20;97.80
16970;DHT22;8601;48.718;8.992;2022-10-22T12:56:36;19.40;98.80
16970;DHT22;8601;48.718;8.992;2022-10-22T12:59:06;19.50;98.50
16970;DHT22;8601;48.718;8.992;2022-10-22T13:01:38;19.70;97.90
16970;DHT22;8601;48.718;8.992;2022-10-22T13:04:18;19.60;98.00
16970;DHT22;8601;48.718;8.992;2022-10-22T13:06:46;19.60;96.70
16970;DHT22;8601;48.718;8.992;2022-10-22T13:09:16;19.60;97.90
16970;DHT22;8601;48.718;8.992;2022-10-22T13:11:51;19.90;98.50
16970;DHT22;8601;48.718;8.992;2022-10-22T13:14:25;20.10;97.50
16970;DHT22;8601;48.718;8.992;2022-10-22T13:17:04;20.20;97.30
16970;DHT22;8601;48.718;8.992;2022-10-22T13:19:43;20.10;95.60
16970;DHT22;8601;48.718;8.992;2022-10-22T13:22:29;20.00;95.40
16970;DHT22;8601;48.718;8.992;2022-10-22T13:24:57;19.90;95.40
16970;DHT22;8601;48.718;8.992;2022-10-22T13:27:28;20.00;96.40
16970;DHT22;8601;48.718;8.992;2022-10-22T13:30:00;20.00;94.90
16970;DHT22;8601;48.718;8.992;2022-10-22T13:32:31;19.80;95.50
16970;DHT22;8601;48.718;8.992;2022-10-22T13:34:59;19.70;96.30
16970;DHT22;8601;48.718;8.992;2022-10-22T13:37:29;19.50;95.80
16970;DHT22;8601;48.718;8.992;2022-10-22T13:39:56;19.30;95.40
16970;DHT22;8601;48.718;8.992;2022-10-22T13:42:24;19.30;95.10
16970;DHT22;8601;48.718;8.992;2022-10-22T13:44:52;19.30;94.70
16970;DHT22;8601;48.718;8.992;2022-10-22T13:47:25;19.50;95.40
16970;DHT22;8601;48.718;8.992;2022-10-22T13:49:54;19.50;94.70
16970;DHT22;8601;48.718;8.992;2022-10-22T13:52:29;19.40;94.00
16970;DHT22;8601;48.718;8.992;2022-10-22T13:54:56;19.40;94.20
16970;DHT22;8601;48.718;8.992;2022-10-22T13:57:23;19.60;95.50
16970;DHT22;8601;48.718;8.992;2022-10-22T13:59:57;19.80;94.50
16970;DHT22;8601;48.718;8.992;2022-10-22T14:02:25;19.90;96.00
16970;DHT22;8601;48.718;8.992;2022-10-22T14:04:52;19.80;96.30
16970;DHT22;8601;48.718;8.992;2022-10-22T14:07:20;19.80;93.40
16970;DHT22;8601;48.718;8.992;2022-10-22T14:09:47;19.80;94.00
16970;DHT22;8601;48.718;8.992;2022-10-22T14:12:15;19.80;92.00
16970;DHT22;8601;48.718;8.992;2022-10-22T14:14:42;19.70;91.90
16970;DHT22;8601;48.718;8.992;2022-10-22T14:17:13;19.80;92.40
16970;DHT22;8601;48.718;8.992;2022-10-22T14:19:42;19.80;91.60
16970;DHT22;8601;48.718;8.992;2022-10-22T14:22:13;19.80;92.00
16970;DHT22;8601;48.718;8.992;2022-10-22T14:24:40;19.80;91.10
16970;DHT22;8601;48.718;8.992;2022-10-22T14:27:09;19.80;91.60
16970;DHT22;8601;48.718;8.992;2022-10-22T14:29:37;19.80;93.00
16970;DHT22;8601;48.718;8.992;2022-10-22T14:32:09;19.70;91.40
16970;DHT22;8601;48.718;8.992;2022-10-22T14:34:39;19.70;91.30
16970;DHT22;8601;48.718;8.992;2022-10-22T14:37:16;19.50;90.10
16970;DHT22;8601;48.718;8.992;2022-10-22T14:39:44;19.50;91.00
16970;DHT22;8601;48.718;8.992;2022-10-22T14:42:18;19.50;90.60
16970;DHT22;8601;48.718;8.992;2022-10-22T14:44:45;19.50;90.00
16970;DHT22;8601;48.718;8.992;2022-10-22T14:47:13;19.40;90.10
16970;DHT22;8601;48.718;8.992;2022-10-22T14:49:42;19.40;89.00
16970;DHT22;8601;48.718;8.992;2022-10-22T14:52:09;19.40;90.50
16970;DHT22;8601;48.718;8.992;2022-10-22T14:54:37;19.30;90.40
16970;DHT22;8601;48.718;8.992;2022-10-22T14:57:04;19.30;91.60
16970;DHT22;8601;48.718;8.992;2022-10-22T14:59:33;19.30;92.10
16970;DHT22;8601;48.718;8.992;2022-10-22T15:02:00;19.20;92.10
16970;DHT22;8601;48.718;8.992;2022-10-22T15:04:27;19.20;91.00
16970;DHT22;8601;48.718;8.992;2022-10-22T15:06:56;19.20;90.80
16970;DHT22;8601;48.718;8.992;2022-10-22T15:09:24;19.10;90.50
16970;DHT22;8601;48.718;8.992;2022-10-22T15:11:51;19.10;91.80
16970;DHT22;8601;48.718;8.992;2022-10-22T15:14:18;19.00;91.60
16970;DHT22;8601;48.718;8.992;2022-10-22T15:16:45;19.00;92.90
16970;DHT22;8601;48.718;8.992;2022-10-22T15:19:12;18.90;91.50
16970;DHT22;8601;48.718;8.992;2022-10-22T15:21:39;18.90;92.20
16970;DHT22;8601;48.718;8.992;2022-10-22T15:24:08;18.80;92.80
16970;DHT22;8601;48.718;8.992;2022-10-22T15:26:35;18.70;92.90
16970;DHT22;8601;48.718;8.992;2022-10-22T15:29:03;18.70;92.50
16970;DHT22;8601;48.718;8.992;2022-10-22T15:31:45;18.70;93.20
16970;DHT22;8601;48.718;8.992;2022-10-22T15:34:12;18.60;93.20
16970;DHT22;8601;48.718;8.992;2022-10-22T15:36:43;18.60;92.40
16970;DHT22;8601;48.718;8.992;2022-10-22T15:39:11;18.60;91.70
16970;DHT22;8601;48.718;8.992;2022-10-22T15:41:38;18.60;91.60
16970;DHT22;8601;48.718;8.992;2022-10-22T15:44:06;18.50;91.60
16970;DHT22;8601;48.718;8.992;2022-10-22T15:46:33;18.40;91.80
16970;DHT22;8601;48.718;8.992;2022-10-22T15:49:00;18.30;93.10
16970;DHT22;8601;48.718;8.992;2022-10-22T15:51:28;18.20;93.80
16970;DHT22;8601;48.718;8.992;2022-10-22T15:53:57;18.10;94.00
16970;DHT22;8601;48.718;8.992;2022-10-22T15:56:27;18.00;95.90
16970;DHT22;8601;48.718;8.992;2022-10-22T15:58:56;17.70;98.30
16970;DHT22;8601;48.718;8.992;2022-10-22T16:01:23;17.80;99.90
16970;DHT22;8601;48.718;8.992;2022-10-22T16:03:51;17.50;98.50